Airport ID:CYTF
Update Time (UTC):18/09/2020 15:54
Wind Speed (Knots):9
Wind Direction (Magnetic):350
Temperature (°C):9.4
Dew Point (°C):0
Humidity (%):52
Altimeter (inHg):30.21
Density Altitude (Feet):\\\\
Visibility (Miles):6
Clouds (Hundreds of feet):NCD
Present Weather:
METAR:METAR CYTF 181600Z AUTO 32009KT 300V360 10SM NCD 10/M00 A3020

The data displayed is for advisory purposes only and is not to be used for flight planning or operations.

This page is not automatically refreshed. Reload the page to see current data.